Time;durP1;ratioP1;P1;durP2;ratioP2;P2;SDS_P1;SDS_P2;PMS_P1;PMS_P2;Temp;Humidity;BMP_temperature;BMP_pressure;BME280_temperature;BME280_humidity;BME280_pressure;Samples;Min_cycle;Max_cycle;Signal;HPM_P1;HPM_P2
2022/08/22 00:01:33;;;;;;;;;4.50;4.50;;;;;22.06;54.63;101295.31;5106919;27;49473;-67
2022/08/22 00:04:24;;;;;;;;;10.25;7.00;;;;;22.05;54.44;101298.03;5106038;27;49744;-67
2022/08/22 00:07:17;;;;;;;;;7.75;7.75;;;;;21.95;54.27;101290.19;5094829;27;49711;-68
2022/08/22 00:10:07;;;;;;;;;6.50;5.25;;;;;22.05;54.26;101296.25;5104963;27;49562;-68
2022/08/22 00:12:44;;;;;;;;;15.25;13.00;;;;;22.05;54.39;101287.34;5110627;27;49537;-67
2022/08/22 00:15:18;;;;;;;;;21.00;19.50;;;;;21.98;54.31;101281.22;5108554;27;50616;-67
2022/08/22 00:18:11;;;;;;;;;12.25;10.00;;;;;22.02;54.35;101277.59;5109576;27;49896;-68
2022/08/22 00:21:15;;;;;;;;;9.75;8.25;;;;;21.99;54.43;101274.94;5078603;28;49377;-68
2022/08/22 00:23:49;;;;;;;;;7.25;7.25;;;;;21.92;53.91;101260.84;5106291;27;49700;-67
2022/08/22 00:26:43;;;;;;;;;10.25;10.25;;;;;21.93;54.17;101272.41;5090715;27;50533;-69
2022/08/22 00:29:23;;;;;;;;;12.25;8.00;;;;;21.90;54.13;101267.09;5109286;27;49324;-67
2022/08/22 00:31:56;;;;;;;;;11.75;9.75;;;;;21.88;54.25;101268.91;5109212;27;49747;-68
2022/08/22 00:34:32;;;;;;;;;16.75;15.50;;;;;21.83;54.23;101276.16;5109357;27;49411;-68
2022/08/22 00:37:19;;;;;;;;;15.00;13.00;;;;;21.83;54.08;101269.00;5109271;27;50326;-68
2022/08/22 00:39:52;;;;;;;;;19.00;16.50;;;;;21.76;54.01;101270.03;5090214;27;49805;-68
2022/08/22 00:42:32;;;;;;;;;18.00;15.25;;;;;21.71;54.21;101277.22;5109329;27;49538;-67
2022/08/22 00:45:28;;;;;;;;;16.00;14.75;;;;;21.70;53.79;101288.81;5109305;27;49395;-67
2022/08/22 00:48:15;;;;;;;;;15.25;15.25;;;;;21.70;54.22;101280.81;5107733;27;50343;-68
2022/08/22 00:51:12;;;;;;;;;8.00;7.50;;;;;21.69;54.06;101287.06;5108631;27;49643;-68
2022/08/22 00:53:48;;;;;;;;;7.50;7.50;;;;;21.58;53.86;101267.66;5109009;27;49573;-68
2022/08/22 00:56:38;;;;;;;;;7.00;7.00;;;;;21.65;53.67;101286.25;5109943;27;49733;-68
2022/08/22 00:59:41;;;;;;;;;4.50;4.50;;;;;21.64;53.43;101281.81;5108205;27;50744;-70
2022/08/22 01:02:28;;;;;;;;;4.25;4.25;;;;;21.62;53.26;101280.97;5109989;27;49207;-70
2022/08/22 01:05:28;;;;;;;;;4.75;4.25;;;;;21.63;53.51;101288.06;5109557;27;49530;-68
2022/08/22 01:08:31;;;;;;;;;3.75;3.75;;;;;21.64;53.38;101292.50;5109483;27;50204;-68
2022/08/22 01:11:24;;;;;;;;;3.00;3.00;;;;;21.63;53.26;101289.84;5108654;27;49444;-69
2022/08/22 01:14:02;;;;;;;;;4.00;4.00;;;;;21.64;53.13;101292.50;5109097;27;49516;-68
2022/08/22 01:16:59;;;;;;;;;3.75;2.25;;;;;21.62;53.07;101293.44;5109551;27;49487;-69
2022/08/22 01:19:43;;;;;;;;;4.25;2.50;;;;;21.61;52.97;101281.84;5109961;27;49493;-71
2022/08/22 01:22:48;;;;;;;;;3.75;2.75;;;;;21.55;52.90;101281.06;5108364;27;49619;-68
2022/08/22 01:25:51;;;;;;;;;3.00;3.00;;;;;21.52;53.10;101284.69;5110078;27;49491;-68
2022/08/22 01:28:53;;;;;;;;;2.00;2.00;;;;;21.47;53.17;101278.53;5109107;27;49754;-69
2022/08/22 01:31:18;;;;;;;;;2.50;2.50;;;;;21.45;53.11;101275.00;5109108;27;49632;-68
2022/08/22 01:34:03;;;;;;;;;3.50;3.50;;;;;21.40;53.34;101268.84;5109020;27;50203;-70
2022/08/22 01:37:03;;;;;;;;;3.25;3.25;;;;;21.35;53.36;101263.56;5108610;27;49634;-70
2022/08/22 01:39:58;;;;;;;;;3.50;3.50;;;;;21.31;53.56;101256.50;5105433;27;49675;-68
2022/08/22 01:42:45;;;;;;;;;3.50;2.75;;;;;21.27;53.73;101259.25;5108131;27;49875;-69
2022/08/22 01:45:13;;;;;;;;;3.50;3.00;;;;;21.24;53.47;101256.63;5107831;27;49695;-68
2022/08/22 01:47:54;;;;;;;;;2.25;2.25;;;;;21.20;53.60;101246.88;5108456;27;49587;-67
2022/08/22 01:50:34;;;;;;;;;3.00;3.00;;;;;21.17;53.99;101252.25;5108750;27;49746;-68
2022/08/22 01:53:15;;;;;;;;;3.25;3.25;;;;;21.14;54.27;101258.53;5108052;27;49313;-68
2022/08/22 01:55:59;;;;;;;;;3.00;3.00;;;;;21.08;54.27;101250.59;5108527;27;50407;-68
2022/08/22 01:58:30;;;;;;;;;6.00;4.00;;;;;21.03;54.53;101257.78;5108082;27;49394;-68
2022/08/22 02:01:17;;;;;;;;;4.00;2.25;;;;;21.02;54.55;101261.34;5108053;27;49477;-68
2022/08/22 02:04:04;;;;;;;;;3.50;3.50;;;;;20.88;54.88;101247.34;5109278;27;49330;-68
2022/08/22 02:06:43;;;;;;;;;3.00;2.75;;;;;20.96;55.30;101265.03;5107377;27;49658;-69
2022/08/22 02:09:52;;;;;;;;;3.25;3.25;;;;;20.94;55.34;101265.91;5108763;27;49341;-68
2022/08/22 02:12:36;;;;;;;;;4.00;3.75;;;;;20.92;55.57;101271.28;5093031;27;49498;-69
2022/08/22 02:15:17;;;;;;;;;3.25;3.25;;;;;20.89;55.64;101262.44;5108901;27;49385;-68
2022/08/22 02:18:01;;;;;;;;;5.75;5.25;;;;;20.86;55.34;101263.38;5108254;27;49947;-68
2022/08/22 02:21:04;;;;;;;;;3.00;2.00;;;;;20.79;55.60;101262.56;5107882;27;49878;-68
2022/08/22 02:23:29;;;;;;;;;2.00;2.00;;;;;20.78;55.49;101263.47;5108295;27;49645;-69
2022/08/22 02:26:00;;;;;;;;;3.75;3.00;;;;;20.75;55.54;101265.28;5109658;27;49989;-68
2022/08/22 02:28:42;;;;;;;;;5.25;3.50;;;;;20.71;55.33;101259.13;5107648;27;49960;-68
2022/08/22 02:31:16;;;;;;;;;3.00;2.75;;;;;20.70;55.48;101253.81;5108215;27;49392;-69
2022/08/22 02:33:45;;;;;;;;;4.50;4.50;;;;;20.67;55.72;101256.53;5107377;27;49779;-68
2022/08/22 02:36:22;;;;;;;;;3.50;3.25;;;;;20.64;55.67;101259.22;5108373;27;49890;-68
2022/08/22 02:39:05;;;;;;;;;4.00;2.50;;;;;20.27;55.42;101200.97;5108065;27;50588;-69
2022/08/22 02:41:46;;;;;;;;;5.75;3.75;;;;;20.60;55.71;101263.72;5107128;27;49365;-68
2022/08/22 02:44:27;;;;;;;;;3.00;3.00;;;;;20.58;56.10;101269.06;5107618;27;49712;-68
2022/08/22 02:47:07;;;;;;;;;5.00;2.50;;;;;20.45;55.82;101251.44;5107780;27;49671;-68
2022/08/22 02:49:39;;;;;;;;;4.25;4.25;;;;;20.56;55.82;101260.22;5107771;27;50381;-67
2022/08/22 02:52:17;;;;;;;;;2.75;2.75;;;;;20.54;55.93;101255.78;5107954;27;49370;-68
2022/08/22 02:55:12;;;;;;;;;3.25;3.25;;;;;20.51;56.18;101261.16;5109708;27;49475;-69
2022/08/22 02:57:52;;;;;;;;;3.00;3.00;;;;;20.41;55.97;101241.69;5089390;27;49853;-68
2022/08/22 03:00:39;;;;;;;;;4.50;3.25;;;;;20.47;55.99;101259.44;5107324;27;49606;-70
2022/08/22 03:03:19;;;;;;;;;3.00;3.00;;;;;20.22;56.01;101210.81;5107126;27;49546;-70
2022/08/22 03:06:01;;;;;;;;;4.25;4.25;;;;;20.44;56.08;101252.34;5107155;27;49434;-68
2022/08/22 03:08:36;;;;;;;;;5.00;4.25;;;;;20.44;56.15;101254.13;5109226;27;49687;-68
2022/08/22 03:11:25;;;;;;;;;4.00;4.00;;;;;20.39;56.03;101245.28;5107876;27;50436;-68
2022/08/22 03:14:01;;;;;;;;;5.75;5.00;;;;;20.45;56.15;101264.75;5107295;27;49585;-68
2022/08/22 03:16:29;;;;;;;;;3.75;3.75;;;;;20.42;56.40;101258.56;5106324;27;49703;-70
2022/08/22 03:19:11;;;;;;;;;5.00;3.75;;;;;20.40;56.44;101263.91;5107903;27;49598;-68
2022/08/22 03:22:07;;;;;;;;;3.75;3.00;;;;;20.34;56.42;101271.09;5107603;27;50270;-69
2022/08/22 03:24:41;;;;;;;;;5.25;4.25;;;;;20.30;56.28;101270.25;5105711;27;49413;-68
2022/08/22 03:27:19;;;;;;;;;4.75;4.75;;;;;20.26;56.43;101272.06;5106782;27;50035;-68
2022/08/22 03:29:50;;;;;;;;;4.50;4.50;;;;;20.23;56.30;101261.44;5106788;27;49827;-68
2022/08/22 03:32:43;;;;;;;;;4.75;3.75;;;;;20.19;56.22;101254.38;5107021;27;50449;-68
2022/08/22 03:35:20;;;;;;;;;2.00;2.00;;;;;20.16;56.43;101246.41;5103308;27;49979;-68
2022/08/22 03:37:49;;;;;;;;;4.00;4.00;;;;;20.18;56.75;101255.28;5106765;27;49313;-67
2022/08/22 03:40:26;;;;;;;;;5.25;4.00;;;;;20.16;56.58;101249.06;5106494;27;49424;-68
2022/08/22 03:43:12;;;;;;;;;4.00;4.00;;;;;20.15;56.86;101247.31;5105835;27;49495;-68
2022/08/22 03:45:56;;;;;;;;;5.75;4.50;;;;;20.14;56.68;101256.19;5105041;27;49598;-70
2022/08/22 03:48:24;;;;;;;;;3.75;3.75;;;;;20.14;56.73;101258.00;5106289;27;49383;-68
2022/08/22 03:51:04;;;;;;;;;3.00;3.00;;;;;20.09;57.08;101260.72;5107210;27;49357;-67
2022/08/22 03:53:44;;;;;;;;;3.75;3.75;;;;;20.06;56.96;101250.06;5106211;27;49570;-68
2022/08/22 03:56:25;;;;;;;;;3.00;3.00;;;;;20.04;57.26;101246.53;5106788;27;49293;-68
2022/08/22 03:58:53;;;;;;;;;3.50;3.50;;;;;20.01;57.02;101247.47;5106529;27;49549;-67
2022/08/22 04:01:41;;;;;;;;;6.00;4.50;;;;;19.99;57.29;101249.25;5107070;27;49450;-69
2022/08/22 04:04:10;;;;;;;;;3.25;3.25;;;;;19.95;57.36;101236.84;5106275;27;49525;-69
2022/08/22 04:06:50;;;;;;;;;4.00;4.00;;;;;19.94;57.56;101239.53;5106902;27;49490;-68
2022/08/22 04:09:41;;;;;;;;;4.50;3.75;;;;;19.76;57.61;101211.28;5106087;27;49935;-68
2022/08/22 04:12:43;;;;;;;;;4.00;4.00;;;;;19.82;57.84;101221.91;5103249;27;49579;-70
2022/08/22 04:15:27;;;;;;;;;3.50;3.50;;;;;19.61;57.74;101195.47;5106066;27;49502;-69
2022/08/22 04:18:14;;;;;;;;;4.25;4.25;;;;;19.82;57.84;101237.00;5105581;27;49679;-68
2022/08/22 04:20:58;;;;;;;;;4.25;4.25;;;;;19.78;58.20;101236.13;5105691;27;49844;-68
2022/08/22 04:23:58;;;;;;;;;4.50;4.00;;;;;19.73;58.28;101238.84;5107078;27;49510;-68
2022/08/22 04:26:41;;;;;;;;;4.25;4.00;;;;;19.66;58.33;101226.47;5106525;27;49576;-69
2022/08/22 04:29:20;;;;;;;;;4.00;1.50;;;;;19.63;58.53;101220.31;5106263;27;49403;-68
2022/08/22 04:31:56;;;;;;;;;4.25;4.00;;;;;19.69;58.51;101242.47;5105539;27;49781;-68
2022/08/22 04:34:44;;;;;;;;;7.25;6.00;;;;;19.69;58.56;101246.91;5105339;27;49486;-68
2022/08/22 04:37:24;;;;;;;;;5.50;4.00;;;;;19.68;58.91;101245.09;5105964;27;50185;-68
2022/08/22 04:40:04;;;;;;;;;4.75;4.75;;;;;19.67;58.70;101238.00;5106491;27;49290;-67
2022/08/22 04:42:39;;;;;;;;;4.75;3.50;;;;;19.53;58.83;101211.50;5105625;27;49455;-68
2022/08/22 04:45:12;;;;;;;;;4.00;4.00;;;;;19.64;58.85;101232.72;5105105;27;49465;-68
2022/08/22 04:47:43;;;;;;;;;5.00;5.00;;;;;19.63;58.82;101246.94;5105611;27;49764;-70
2022/08/22 04:50:30;;;;;;;;;4.00;4.00;;;;;19.63;59.30;101249.59;5105687;27;49471;-68
2022/08/22 04:53:11;;;;;;;;;4.75;4.00;;;;;19.62;58.95;101262.03;5105379;27;49851;-69
2022/08/22 04:55:55;;;;;;;;;4.50;4.00;;;;;19.61;58.81;101267.38;5087200;27;49861;-69
2022/08/22 04:58:35;;;;;;;;;3.00;3.00;;;;;19.64;58.67;101268.22;5108254;27;50389;-69
2022/08/22 05:01:09;;;;;;;;;4.25;3.75;;;;;19.63;58.97;101257.59;5107415;27;49478;-68
2022/08/22 05:03:44;;;;;;;;;5.00;4.50;;;;;19.56;59.12;101239.91;5085064;27;49535;-69
2022/08/22 05:06:13;;;;;;;;;5.00;5.00;;;;;19.68;59.10;101269.06;5108710;27;49462;-68
2022/08/22 05:08:42;;;;;;;;;5.00;4.00;;;;;19.52;58.59;101249.66;5084055;27;50142;-68
2022/08/22 05:11:10;;;;;;;;;6.75;5.50;;;;;19.70;59.00;101285.97;5104338;27;49365;-68
2022/08/22 05:13:42;;;;;;;;;4.50;4.50;;;;;19.59;58.91;101267.41;5109441;27;49385;-68
2022/08/22 05:16:15;;;;;;;;;6.25;5.25;;;;;19.69;59.32;101276.19;5109266;27;49323;-68
2022/08/22 05:18:53;;;;;;;;;5.00;4.00;;;;;19.64;58.94;101249.59;5109519;27;49589;-68
2022/08/22 05:21:24;;;;;;;;;7.50;5.25;;;;;19.82;59.01;101268.97;5110088;27;49556;-71
2022/08/22 05:24:17;;;;;;;;;6.00;6.00;;;;;19.39;58.65;101184.97;5109340;27;49462;-65
2022/08/22 05:26:47;;;;;;;;;5.50;5.50;;;;;19.85;58.75;101271.59;5104078;27;51271;-82
2022/08/22 05:29:20;;;;;;;;;6.50;4.00;;;;;19.84;58.74;101265.38;5105760;27;50700;-69
2022/08/22 05:31:53;;;;;;;;;4.00;4.00;;;;;19.89;58.56;101265.38;5109198;27;49418;-66
2022/08/22 05:34:22;;;;;;;;;4.50;3.00;;;;;19.88;58.60;101272.47;5088014;27;49599;-68
2022/08/22 05:36:51;;;;;;;;;5.00;4.00;;;;;19.91;58.37;101261.78;5110141;27;49956;-66
2022/08/22 05:39:21;;;;;;;;;5.25;4.25;;;;;20.20;58.18;101298.81;5110605;27;50142;-66
2022/08/22 05:41:48;;;;;;;;;8.00;6.75;;;;;20.28;57.65;101291.59;5110103;27;49312;-66
2022/08/22 05:44:22;;;;;;;;;6.00;5.00;;;;;20.36;57.31;101291.50;5109308;27;49546;-66
2022/08/22 05:46:51;;;;;;;;;5.00;5.00;;;;;20.45;57.29;101285.22;5109836;27;49516;-70
2022/08/22 05:49:33;;;;;;;;;9.00;5.00;;;;;20.51;56.92;101282.50;5110233;27;49588;-68
2022/08/22 05:52:14;;;;;;;;;4.50;4.50;;;;;20.54;56.80;101282.44;5102142;27;49682;-69
2022/08/22 05:55:00;;;;;;;;;3.00;3.00;;;;;20.38;57.01;101263.06;5103532;27;49491;-70
2022/08/22 05:57:32;;;;;;;;;4.00;4.00;;;;;20.49;56.92;101285.19;5105465;27;49547;-66
2022/08/22 06:00:05;;;;;;;;;6.50;6.50;;;;;20.30;56.61;101252.47;5108254;27;50250;-71
2022/08/22 06:03:03;;;;;;;;;10.00;5.25;;;;;20.64;56.37;101294.75;5109200;27;49273;-69
2022/08/22 06:05:34;;;;;;;;;6.50;5.25;;;;;20.71;56.25;101290.25;5103972;27;49353;-65
2022/08/22 06:08:06;;;;;;;;;6.00;3.75;;;;;20.50;56.27;101262.06;5107209;27;49985;-67
2022/08/22 06:10:47;;;;;;;;;5.25;4.00;;;;;20.68;56.33;101296.50;5108051;27;49533;-72
2022/08/22 06:13:26;;;;;;;;;6.25;4.75;;;;;20.71;55.97;101311.59;5108381;27;49557;-76
2022/08/22 06:16:15;;;;;;;;;4.75;4.50;;;;;20.71;56.09;101300.91;5108032;27;49395;-74
2022/08/22 06:18:42;;;;;;;;;5.00;5.00;;;;;20.69;56.21;101292.06;5107687;27;49833;-71
2022/08/22 06:21:19;;;;;;;;;4.00;4.00;;;;;20.65;56.46;101280.53;5089590;27;50353;-71
2022/08/22 06:23:52;;;;;;;;;4.50;4.50;;;;;20.66;56.51;101278.78;5107651;27;49350;-75
2022/08/22 06:26:18;;;;;;;;;5.00;5.00;;;;;20.55;56.31;101260.19;5108063;27;49293;-66
2022/08/22 06:28:46;;;;;;;;;7.00;6.00;;;;;20.85;56.16;101299.88;5107065;27;49553;-73
2022/08/22 06:31:21;;;;;;;;;8.75;5.00;;;;;20.89;55.79;101306.03;5108560;27;50071;-67
2022/08/22 06:33:59;;;;;;;;;3.75;3.75;;;;;20.79;56.20;101280.38;5107301;27;49305;-70
2022/08/22 06:36:32;;;;;;;;;4.00;4.00;;;;;21.01;55.80;101307.66;5106211;27;49572;-63
2022/08/22 06:39:06;;;;;;;;;7.00;6.25;;;;;21.09;55.72;101305.75;5107394;27;49473;-69
2022/08/22 06:42:01;;;;;;;;;4.50;4.50;;;;;21.07;55.27;101288.88;5104069;27;50445;-73
2022/08/22 06:44:42;;;;;;;;;7.00;3.00;;;;;21.17;55.12;101285.19;5063445;27;49225;-65
2022/08/22 06:47:15;;;;;;;;;4.00;4.00;;;;;21.32;55.36;101284.97;5096715;27;50085;-75
2022/08/22 06:49:44;;;;;;;;;6.25;5.00;;;;;21.34;54.61;101252.94;5085112;27;49890;-72
2022/08/22 06:52:22;;;;;;;;;8.00;4.75;;;;;21.75;54.39;101299.44;5075317;27;51384;-66
2022/08/22 06:54:59;;;;;;;;;6.00;6.00;;;;;21.86;54.19;101282.31;5053019;28;49847;-66
2022/08/22 06:57:31;;;;;;;;;5.50;4.50;;;;;21.98;53.86;101276.75;5052068;28;49780;-64
2022/08/22 06:59:58;;;;;;;;;4.00;4.00;;;;;22.03;53.70;101279.34;5049883;28;50025;-73
2022/08/22 07:02:44;;;;;;;;;4.50;3.50;;;;;21.48;53.56;101196.59;5050791;28;50799;-75
2022/08/22 07:05:35;;;;;;;;;5.25;4.75;;;;;22.19;53.22;101302.22;5044016;28;49681;-72
2022/08/22 07:08:12;;;;;;;;;6.25;4.00;;;;;22.16;53.18;101290.72;5046527;28;49966;-68
2022/08/22 07:10:44;;;;;;;;;6.75;5.50;;;;;22.34;53.28;101314.44;5049409;28;50106;-70
2022/08/22 07:13:18;;;;;;;;;4.75;4.75;;;;;21.57;53.21;101173.28;5050406;28;49881;-68
2022/08/22 07:15:52;;;;;;;;;6.75;5.50;;;;;22.46;53.08;101322.22;5052297;28;49879;-65
2022/08/22 07:18:20;;;;;;;;;5.50;4.50;;;;;21.83;52.95;101223.59;5042188;28;49927;-76
2022/08/22 07:20:51;;;;;;;;;4.75;4.75;;;;;21.87;53.16;101246.66;5050705;28;50132;-70
2022/08/22 07:23:33;;;;;;;;;9.00;6.75;;;;;22.37;53.00;101284.97;5050591;28;50285;-74
2022/08/22 07:26:14;;;;;;;;;9.00;4.75;;;;;22.62;53.05;101325.50;5050470;28;49917;-68
2022/08/22 07:28:44;;;;;;;;;6.25;5.00;;;;;22.58;52.76;101310.41;5050497;28;49684;-66
2022/08/22 07:31:24;;;;;;;;;7.25;5.00;;;;;22.58;52.67;101291.66;5050177;28;49863;-75
2022/08/22 07:34:06;;;;;;;;;4.50;4.50;;;;;22.60;52.48;101294.34;5050557;28;49946;-70
2022/08/22 07:36:51;;;;;;;;;2.50;0.75;;;;;22.90;51.69;101338.34;5050347;28;49885;-68
2022/08/22 07:40:00;;;;;;;;;6.25;3.50;;;;;22.08;51.69;101181.25;5050411;28;49907;-69
2022/08/22 07:42:42;;;;;;;;;4.50;4.50;;;;;23.05;51.62;101332.66;5029062;28;49659;-68
2022/08/22 07:45:12;;;;;;;;;3.75;3.75;;;;;23.17;51.29;101337.78;5052819;28;50726;-69
2022/08/22 07:48:03;;;;;;;;;4.25;4.00;;;;;23.28;51.14;101334.84;5049922;28;49752;-62
2022/08/22 07:50:35;;;;;;;;;3.50;3.50;;;;;23.17;50.50;101304.75;5050204;28;49976;-76
2022/08/22 07:53:33;;;;;;;;;6.00;4.00;;;;;23.41;50.58;101345.25;5065169;27;50099;-63
2022/08/22 07:56:00;;;;;;;;;3.25;3.25;;;;;23.36;50.38;101311.44;5089998;27;50329;-75
2022/08/22 07:58:28;;;;;;;;;4.75;4.75;;;;;23.48;50.47;101307.59;5090763;27;49752;-71
2022/08/22 08:00:55;;;;;;;;;4.50;4.50;;;;;23.54;49.73;101312.78;5090461;27;49776;-64
2022/08/22 08:03:24;;;;;;;;;6.75;5.75;;;;;23.53;49.93;101311.03;5090925;27;50497;-64
2022/08/22 08:05:50;;;;;;;;;6.25;4.00;;;;;23.61;49.95;101334.09;5090137;27;50745;-68
2022/08/22 08:08:37;;;;;;;;;3.75;3.75;;;;;23.59;49.76;101329.69;5090266;27;50073;-73
2022/08/22 08:11:06;;;;;;;;;7.00;5.00;;;;;23.38;49.64;101278.34;5090664;27;49944;-66
2022/08/22 08:13:40;;;;;;;;;3.25;3.25;;;;;23.55;49.52;101336.91;5090836;27;50073;-65
2022/08/22 08:16:10;;;;;;;;;4.50;4.50;;;;;23.40;49.14;101299.72;5090221;27;51301;-63
2022/08/22 08:18:38;;;;;;;;;9.50;7.25;;;;;23.75;49.47;101341.81;5090487;27;49832;-63
2022/08/22 08:21:09;;;;;;;;;5.50;4.50;;;;;23.61;49.24;101322.47;5093336;27;49937;-63
2022/08/22 08:23:40;;;;;;;;;3.75;3.75;;;;;23.60;49.18;101310.00;5090450;27;49972;-63
2022/08/22 08:26:16;;;;;;;;;6.25;3.75;;;;;23.80;49.37;101326.47;5091387;27;51023;-78
2022/08/22 08:28:46;;;;;;;;;3.00;2.50;;;;;24.05;49.22;101336.59;5091742;27;49735;-74
2022/08/22 08:31:29;;;;;;;;;4.75;4.75;;;;;23.58;48.85;101247.50;5095094;27;49920;-78
2022/08/22 08:34:10;;;;;;;;;5.75;5.50;;;;;23.32;48.98;101181.16;5094535;27;49928;-64
2022/08/22 08:36:36;;;;;;;;;5.00;5.00;;;;;24.28;48.32;101320.75;5097033;27;52296;-72
2022/08/22 08:39:13;;;;;;;;;4.50;3.00;;;;;24.34;48.55;101327.81;5094085;27;49877;-76
2022/08/22 08:42:06;;;;;;;;;4.75;4.50;;;;;24.41;48.11;101318.66;5094607;27;49912;-69
2022/08/22 08:44:40;;;;;;;;;7.25;6.00;;;;;24.43;48.13;101325.75;5104315;27;49583;-72
2022/08/22 08:47:05;;;;;;;;;4.75;4.75;;;;;24.51;48.13;101323.75;5106470;27;50207;-77
2022/08/22 08:49:42;;;;;;;;;8.00;7.00;;;;;24.51;48.10;101317.47;5098752;27;49849;-62
2022/08/22 08:52:31;;;;;;;;;5.25;5.00;;;;;23.78;47.81;101221.09;5099845;27;49605;-80
2022/08/22 08:55:17;;;;;;;;;6.75;4.00;;;;;24.35;48.21;101300.06;5096810;27;49732;-65
2022/08/22 08:58:17;;;;;;;;;5.75;4.75;;;;;24.33;48.52;101299.22;5099506;27;51954;-77
2022/08/22 09:01:15;;;;;;;;;4.75;3.75;;;;;24.18;48.57;101295.09;5075402;27;49932;-65
2022/08/22 09:04:36;;;;;;;;;3.75;3.00;;;;;24.12;48.90;101293.44;5101084;27;49838;-61
2022/08/22 09:07:26;;;;;;;;;7.25;6.00;;;;;24.07;48.94;101295.41;5089822;27;51520;-63
2022/08/22 09:10:19;;;;;;;;;5.00;3.25;;;;;24.02;49.25;101289.25;5094343;27;50551;-84
2022/08/22 09:12:53;;;;;;;;;4.75;4.25;;;;;23.95;48.51;101296.59;5094249;27;49727;-65
2022/08/22 09:16:01;;;;;;;;;4.25;3.75;;;;;23.48;49.02;101244.16;5095467;27;49793;-79
2022/08/22 09:18:52;;;;;;;;;5.00;4.00;;;;;23.57;49.15;101251.97;5079528;27;49744;-64
2022/08/22 09:21:20;;;;;;;;;3.25;3.25;;;;;23.87;49.47;101297.72;5095136;27;50627;-77
2022/08/22 09:24:19;;;;;;;;;7.25;4.50;;;;;23.80;48.71;101290.75;5095412;27;49839;-65
2022/08/22 09:26:51;;;;;;;;;4.75;4.75;;;;;23.65;49.50;101279.50;5080167;27;49592;-62
2022/08/22 09:29:35;;;;;;;;;5.50;4.50;;;;;23.79;48.99;101294.34;5099805;27;49928;-65
2022/08/22 09:32:14;;;;;;;;;5.00;3.00;;;;;23.82;49.08;101296.94;5094446;27;50099;-67
2022/08/22 09:35:18;;;;;;;;;3.00;3.00;;;;;23.82;48.43;101272.81;5097386;27;49440;-61
2022/08/22 09:38:10;;;;;;;;;6.50;5.25;;;;;23.89;48.75;101277.09;5080225;27;50058;-62
2022/08/22 09:40:46;;;;;;;;;3.25;3.25;;;;;24.02;48.02;101272.28;5094180;27;49665;-64
2022/08/22 09:43:18;;;;;;;;;4.50;4.25;;;;;;;;5098828;27;50412;-61
2022/08/22 09:46:16;;;;;;;;;4.00;4.00;;;;;24.08;47.36;101269.44;5110179;27;49555;-65
2022/08/22 09:48:59;;;;;;;;;2.50;2.25;;;;;24.13;47.80;101259.50;5105462;27;49349;-71
2022/08/22 09:52:20;;;;;;;;;2.00;2.00;;;;;24.27;47.62;101260.84;5111833;27;49696;-69
2022/08/22 09:55:21;;;;;;;;;7.00;6.00;;;;;24.28;47.74;101259.94;5066772;28;51546;-66
2022/08/22 09:57:58;;;;;;;;;5.25;4.00;;;;;24.17;48.17;101247.75;5050513;28;49550;-71
2022/08/22 10:00:33;;;;;;;;;3.00;2.50;;;;;24.23;48.12;101267.25;5104078;27;49452;-65
2022/08/22 10:03:18;;;;;;;;;3.00;2.25;;;;;24.25;48.10;101264.50;5110713;27;49433;-67
2022/08/22 10:06:06;;;;;;;;;2.00;2.00;;;;;24.28;47.78;101264.41;5111008;27;49947;-64
2022/08/22 10:08:49;;;;;;;;;3.75;3.75;;;;;24.23;47.53;101258.31;5103479;27;49700;-68
2022/08/22 10:11:29;;;;;;;;;5.00;4.00;;;;;24.08;47.77;101205.09;5110442;27;49507;-66
2022/08/22 10:14:16;;;;;;;;;2.25;2.25;;;;;24.35;47.22;101252.63;5107537;27;49604;-65
2022/08/22 10:17:01;;;;;;;;;5.50;4.00;;;;;24.45;46.89;101262.19;5102962;27;49982;-67
2022/08/22 10:19:30;;;;;;;;;2.50;2.50;;;;;24.42;46.75;101251.53;5108325;27;49495;-65
2022/08/22 10:22:29;;;;;;;;;1.75;1.75;;;;;24.49;47.28;101260.28;5110190;27;49555;-66
2022/08/22 10:25:11;;;;;;;;;2.25;1.75;;;;;24.54;46.86;101263.72;5091686;27;49852;-74
2022/08/22 10:27:55;;;;;;;;;2.75;2.00;;;;;24.54;47.16;101250.28;5108576;27;49597;-65
2022/08/22 10:30:41;;;;;;;;;3.25;2.50;;;;;24.52;46.81;101244.09;5109907;27;49207;-71
2022/08/22 10:33:18;;;;;;;;;4.00;3.25;;;;;24.62;46.06;101258.13;5106983;27;49448;-66
2022/08/22 10:35:50;;;;;;;;;4.50;3.50;;;;;24.64;46.15;101253.59;5107530;27;49226;-72
2022/08/22 10:38:24;;;;;;;;;2.75;2.75;;;;;24.44;46.08;101251.50;5107167;27;50086;-72
2022/08/22 10:41:06;;;;;;;;;4.25;3.00;;;;;24.28;46.43;101251.88;5104836;27;49299;-79
2022/08/22 10:43:52;;;;;;;;;6.25;4.00;;;;;24.39;46.49;101248.91;5111262;27;49636;-67
2022/08/22 10:46:26;;;;;;;;;3.75;3.00;;;;;24.42;46.47;101237.25;5108098;27;49720;-67
2022/08/22 10:48:59;;;;;;;;;5.00;4.00;;;;;24.46;46.39;101230.84;5108135;27;49379;-67
2022/08/22 10:51:38;;;;;;;;;3.50;2.00;;;;;24.54;45.62;101237.75;5106097;27;49352;-76
2022/08/22 10:54:09;;;;;;;;;2.00;2.00;;;;;24.67;46.03;101243.63;5110490;27;49517;-77
2022/08/22 10:56:50;;;;;;;;;2.25;2.00;;;;;24.72;46.27;101240.81;5110172;27;49520;-82
2022/08/22 10:59:34;;;;;;;;;5.00;4.50;;;;;24.72;45.97;101243.50;5103380;27;49581;-67
2022/08/22 11:02:27;;;;;;;;;4.25;3.50;;;;;24.59;46.33;101220.63;5110298;27;49244;-67
2022/08/22 11:05:12;;;;;;;;;2.25;2.00;;;;;24.78;45.96;101243.31;5107723;27;49641;-66
2022/08/22 11:07:50;;;;;;;;;2.75;2.75;;;;;24.82;45.94;101251.22;5101717;27;49750;-66
2022/08/22 11:10:53;;;;;;;;;1.00;1.00;;;;;24.75;45.70;101251.47;5104476;27;49914;-66
2022/08/22 11:13:40;;;;;;;;;3.50;3.50;;;;;23.84;45.66;101108.34;5106301;27;49641;-70
2022/08/22 11:16:12;;;;;;;;;3.00;2.50;;;;;24.95;45.72;101246.34;5106429;27;49481;-79
2022/08/22 11:18:52;;;;;;;;;5.00;4.25;;;;;25.21;45.72;101247.38;5107369;27;49327;-68
2022/08/22 11:21:36;;;;;;;;;3.50;2.00;;;;;25.39;45.00;101244.97;5088412;27;51245;-75
2022/08/22 11:24:26;;;;;;;;;5.00;4.00;;;;;25.52;44.91;101244.56;5106718;27;49713;-72
2022/08/22 11:27:05;;;;;;;;;4.00;3.50;;;;;25.54;44.82;101234.63;5107296;27;49997;-70
2022/08/22 11:30:04;;;;;;;;;4.00;4.00;;;;;25.64;44.46;101241.47;5085414;27;49540;-71
2022/08/22 11:32:48;;;;;;;;;3.00;3.00;;;;;25.63;44.85;101235.19;5092326;27;49959;-83
2022/08/22 11:35:55;;;;;;;;;6.00;3.25;;;;;25.85;44.54;101232.66;5087556;27;49961;-83
2022/08/22 11:38:43;;;;;;;;;1.75;1.25;;;;;25.80;43.95;101201.50;5072593;27;49949;-77
2022/08/22 11:41:18;;;;;;;;;3.00;2.00;;;;;25.09;43.64;101079.41;5099204;27;49866;-74
2022/08/22 11:43:54;;;;;;;;;2.50;2.50;;;;;26.37;43.48;101227.25;5097334;27;51172;-73
2022/08/22 11:46:29;;;;;;;;;2.00;2.00;;;;;26.45;43.36;101220.66;5094038;27;49741;-68
2022/08/22 11:48:59;;;;;;;;;2.00;1.75;;;;;26.66;42.41;101231.56;5083936;27;49828;-73
2022/08/22 11:51:47;;;;;;;;;4.75;2.00;;;;;26.75;42.04;101220.44;5096568;27;49656;-74
2022/08/22 11:54:18;;;;;;;;;2.75;1.75;;;;;26.66;41.62;101201.94;5094283;27;52236;-73
2022/08/22 11:57:03;;;;;;;;;3.00;2.50;;;;;26.17;41.75;101150.81;5085035;27;49850;-75
2022/08/22 11:59:40;;;;;;;;;3.00;3.00;;;;;26.36;42.13;101169.84;5091937;27;49903;-69
2022/08/22 12:02:33;;;;;;;;;3.00;3.00;;;;;26.80;42.64;101229.19;5092663;27;49761;-75
2022/08/22 12:05:09;;;;;;;;;4.00;2.00;;;;;26.50;42.33;101148.66;5063378;27;50742;-74
2022/08/22 12:07:40;;;;;;;;;1.75;1.50;;;;;26.78;41.73;101180.78;5085692;27;50103;-71
2022/08/22 12:10:19;;;;;;;;;2.00;2.00;;;;;27.11;41.71;101207.31;5089823;27;50005;-73
2022/08/22 12:13:01;;;;;;;;;4.25;1.25;;;;;27.22;41.89;101210.47;5072175;27;49973;-69
2022/08/22 12:15:50;;;;;;;;;1.50;1.50;;;;;27.28;41.88;101215.59;5088070;27;50026;-71
2022/08/22 12:18:43;;;;;;;;;2.75;1.00;;;;;26.87;41.30;101116.69;5083403;27;49806;-77
2022/08/22 12:21:18;;;;;;;;;0.75;0.75;;;;;27.29;40.80;101173.34;5090629;27;50043;-71
2022/08/22 12:23:55;;;;;;;;;1.75;1.75;;;;;27.50;41.07;101201.19;5094806;27;49798;-77
2022/08/22 12:26:31;;;;;;;;;1.00;1.00;;;;;27.07;41.25;101135.63;5098546;27;51555;-76
2022/08/22 12:29:21;;;;;;;;;1.75;1.75;;;;;27.44;41.36;101198.78;5072308;27;49859;-72